createdAt,value
2022-12-29T00:01:59.988Z,1.40
2022-12-29T00:04:26.540Z,1.00
2022-12-29T00:06:54.355Z,0.90
2022-12-29T00:09:21.352Z,1.00
2022-12-29T00:11:47.945Z,1.48
2022-12-29T00:14:33.353Z,0.88
2022-12-29T00:16:59.929Z,1.33
2022-12-29T00:19:45.052Z,0.82
2022-12-29T00:22:32.405Z,0.75
2022-12-29T00:25:02.351Z,1.10
2022-12-29T00:27:48.859Z,0.75
2022-12-29T00:30:39.544Z,1.25
2022-12-29T00:33:29.100Z,1.00
2022-12-29T00:36:01.563Z,0.68
2022-12-29T00:38:50.859Z,1.00
2022-12-29T00:41:36.109Z,0.70
2022-12-29T00:44:10.993Z,1.42
2022-12-29T00:46:39.189Z,0.60
2022-12-29T00:49:26.231Z,2.50
2022-12-29T00:51:53.183Z,1.70
2022-12-29T00:54:19.767Z,1.38
2022-12-29T00:56:51.333Z,0.90
2022-12-29T00:59:19.429Z,1.92
2022-12-29T01:01:47.654Z,0.82
2022-12-29T01:04:15.002Z,2.38
2022-12-29T01:06:42.363Z,0.70
2022-12-29T01:09:35.251Z,0.50
2022-12-29T01:12:01.986Z,3.50
2022-12-29T01:14:29.025Z,1.10
2022-12-29T01:16:56.428Z,0.90
2022-12-29T01:19:23.817Z,2.10
2022-12-29T01:21:50.911Z,1.45
2022-12-29T01:24:20.368Z,1.73
2022-12-29T01:26:47.342Z,2.05
2022-12-29T01:29:14.281Z,2.13
2022-12-29T01:31:40.977Z,1.02
2022-12-29T01:34:09.162Z,0.80
2022-12-29T01:36:35.784Z,0.80
2022-12-29T01:39:02.811Z,0.70
2022-12-29T01:41:30.027Z,0.68
2022-12-29T01:44:00.215Z,0.70
2022-12-29T01:46:29.060Z,0.80
2022-12-29T01:49:01.734Z,1.00
2022-12-29T01:51:31.226Z,0.70
2022-12-29T01:54:01.667Z,0.82
2022-12-29T01:56:28.335Z,0.90
2022-12-29T01:59:06.240Z,0.60
2022-12-29T02:01:33.853Z,0.98
2022-12-29T02:04:02.256Z,0.88
2022-12-29T02:06:34.001Z,0.73
2022-12-29T02:09:01.862Z,0.70
2022-12-29T02:11:30.890Z,0.90
2022-12-29T02:13:59.358Z,0.70
2022-12-29T02:16:33.092Z,0.60
2022-12-29T02:19:12.972Z,0.75
2022-12-29T02:22:06.322Z,0.55
2022-12-29T02:24:35.790Z,0.60
2022-12-29T02:27:26.885Z,0.63
2022-12-29T02:30:08.744Z,0.77
2022-12-29T02:35:07.871Z,0.60
2022-12-29T02:37:49.847Z,0.57
2022-12-29T02:43:11.381Z,0.47
2022-12-29T02:46:06.753Z,0.50
2022-12-29T02:49:02.565Z,0.40
2022-12-29T02:51:38.250Z,0.90
2022-12-29T02:54:23.593Z,0.60
2022-12-29T02:56:50.482Z,0.55
2022-12-29T02:59:18.048Z,0.40
2022-12-29T03:02:26.187Z,0.30
2022-12-29T03:05:17.370Z,0.32
2022-12-29T03:07:56.136Z,0.40
2022-12-29T03:10:47.624Z,0.50
2022-12-29T03:13:51.793Z,0.70
2022-12-29T03:16:38.219Z,0.90
2022-12-29T03:19:11.245Z,0.40
2022-12-29T03:22:05.596Z,0.38
2022-12-29T03:24:47.658Z,0.50
2022-12-29T03:27:19.894Z,0.40
2022-12-29T03:29:54.211Z,0.60
2022-12-29T03:32:29.228Z,0.60
2022-12-29T03:34:58.505Z,0.50
2022-12-29T03:37:31.977Z,0.43
2022-12-29T03:39:59.473Z,0.50
2022-12-29T03:42:31.002Z,0.50
2022-12-29T03:44:58.367Z,0.35
2022-12-29T03:47:26.240Z,0.50
2022-12-29T03:49:53.381Z,0.50
2022-12-29T03:52:20.070Z,0.50
2022-12-29T03:54:47.979Z,0.40
2022-12-29T03:57:14.664Z,0.70
2022-12-29T03:59:55.209Z,0.40
2022-12-29T04:02:22.008Z,0.30
2022-12-29T04:04:48.790Z,0.30
2022-12-29T04:07:15.419Z,0.45
2022-12-29T04:09:42.746Z,0.47
2022-12-29T04:12:13.039Z,0.40
2022-12-29T04:14:39.663Z,0.57
2022-12-29T04:17:07.190Z,0.45
2022-12-29T04:19:33.847Z,0.40
2022-12-29T04:22:01.462Z,0.40
2022-12-29T04:24:28.271Z,0.35
2022-12-29T04:26:54.939Z,0.40
2022-12-29T04:29:30.462Z,0.38
2022-12-29T04:32:15.664Z,0.50
2022-12-29T04:34:47.892Z,0.30
2022-12-29T04:37:14.525Z,0.40
2022-12-29T04:39:41.802Z,0.43
2022-12-29T04:42:09.195Z,0.40
2022-12-29T04:44:39.765Z,0.50
2022-12-29T04:47:32.585Z,0.60
2022-12-29T04:50:17.695Z,0.30
2022-12-29T04:52:52.921Z,0.45
2022-12-29T04:55:19.826Z,0.50
2022-12-29T04:57:46.469Z,0.70
2022-12-29T05:00:17.781Z,0.40
2022-12-29T05:02:46.189Z,0.30
2022-12-29T05:05:13.058Z,0.30
2022-12-29T05:07:42.888Z,0.38
2022-12-29T05:10:10.508Z,0.30
2022-12-29T05:12:39.024Z,0.35
2022-12-29T05:15:07.683Z,0.32
2022-12-29T05:17:34.962Z,0.30
2022-12-29T05:20:01.801Z,0.50
2022-12-29T05:22:28.833Z,0.32
2022-12-29T05:24:56.502Z,0.30
2022-12-29T05:27:23.700Z,0.30
2022-12-29T05:30:19.772Z,0.45
2022-12-29T05:32:46.391Z,0.35
2022-12-29T05:35:12.954Z,0.30
2022-12-29T05:37:39.618Z,0.47
2022-12-29T05:40:07.378Z,0.30
2022-12-29T05:42:35.302Z,0.55
2022-12-29T05:45:33.118Z,0.30
2022-12-29T05:48:26.326Z,0.50
2022-12-29T05:51:11.636Z,0.35
2022-12-29T05:53:47.100Z,0.20
2022-12-29T05:56:13.710Z,0.30
2022-12-29T05:58:41.026Z,0.50
2022-12-29T06:01:07.882Z,0.52
2022-12-29T06:03:34.590Z,1.00
2022-12-29T06:06:01.255Z,0.70
2022-12-29T06:08:28.671Z,0.35
2022-12-29T06:10:55.250Z,1.95
2022-12-29T06:13:22.188Z,1.80
2022-12-29T06:15:50.607Z,1.00
2022-12-29T06:18:20.317Z,0.60
2022-12-29T06:20:47.653Z,0.40
2022-12-29T06:23:16.255Z,0.80
2022-12-29T06:25:43.737Z,0.55
2022-12-29T06:28:11.683Z,0.40
2022-12-29T06:30:39.014Z,0.77
2022-12-29T06:33:05.648Z,0.50
2022-12-29T06:35:32.483Z,0.50
2022-12-29T06:37:59.910Z,0.63
2022-12-29T06:40:26.563Z,0.57
2022-12-29T06:43:09.532Z,0.50
2022-12-29T06:45:44.104Z,0.60
2022-12-29T06:48:10.807Z,0.75
2022-12-29T06:50:37.366Z,0.70
2022-12-29T06:53:04.451Z,0.57
2022-12-29T06:55:31.099Z,0.50
2022-12-29T06:57:58.258Z,0.63
2022-12-29T07:00:26.200Z,0.75
2022-12-29T07:02:53.208Z,1.05
2022-12-29T07:05:19.931Z,0.70
2022-12-29T07:07:46.493Z,0.40
2022-12-29T07:10:13.103Z,0.70
2022-12-29T07:12:39.660Z,0.32
2022-12-29T07:15:06.795Z,0.50
2022-12-29T07:17:33.343Z,0.47
2022-12-29T07:20:00.486Z,0.38
2022-12-29T07:22:27.103Z,0.70
2022-12-29T07:24:53.687Z,0.68
2022-12-29T07:27:20.278Z,0.70
2022-12-29T07:29:46.899Z,0.70
2022-12-29T07:32:13.610Z,0.60
2022-12-29T07:34:40.732Z,0.70
2022-12-29T07:37:07.647Z,0.60
2022-12-29T07:39:34.323Z,0.77
2022-12-29T07:42:04.908Z,1.02
2022-12-29T07:44:38.920Z,0.73
2022-12-29T07:47:16.875Z,1.40
2022-12-29T07:49:43.518Z,1.80
2022-12-29T07:52:10.096Z,1.60
2022-12-29T07:54:36.756Z,1.00
2022-12-29T07:57:03.539Z,0.90
2022-12-29T07:59:30.220Z,3.08
2022-12-29T08:01:56.919Z,1.73
2022-12-29T08:04:23.772Z,1.10
2022-12-29T08:06:50.769Z,0.63
2022-12-29T08:09:22.320Z,0.40
2022-12-29T08:11:49.689Z,0.50
2022-12-29T08:14:16.274Z,0.22
2022-12-29T08:16:42.912Z,0.40
2022-12-29T08:19:12.318Z,0.60
2022-12-29T08:21:39.451Z,0.40
2022-12-29T08:24:06.985Z,0.80
2022-12-29T08:26:33.782Z,1.27
2022-12-29T08:29:00.342Z,1.55
2022-12-29T08:31:26.986Z,0.70
2022-12-29T08:33:53.574Z,0.95
2022-12-29T08:36:20.266Z,0.73
2022-12-29T08:38:46.874Z,1.13
2022-12-29T08:41:13.676Z,0.77
2022-12-29T08:43:40.321Z,0.82
2022-12-29T08:46:07.022Z,0.55
2022-12-29T08:48:33.648Z,0.82
2022-12-29T08:51:00.204Z,1.17
2022-12-29T08:53:26.862Z,0.85
2022-12-29T08:56:03.956Z,0.80
2022-12-29T08:58:35.678Z,0.75
2022-12-29T09:01:02.431Z,0.73
2022-12-29T09:04:04.380Z,0.73
2022-12-29T09:06:17.771Z,0.60
2022-12-29T09:08:44.896Z,0.60
2022-12-29T09:11:17.581Z,0.68
2022-12-29T09:13:44.178Z,0.60
2022-12-29T09:16:11.413Z,0.80
2022-12-29T09:18:38.631Z,0.70
2022-12-29T09:21:06.847Z,0.68
2022-12-29T09:23:34.503Z,0.68
2022-12-29T09:26:01.485Z,0.60
2022-12-29T09:28:29.898Z,0.45
2022-12-29T09:30:57.178Z,0.65
2022-12-29T09:33:23.895Z,0.63
2022-12-29T09:35:58.912Z,0.40
2022-12-29T09:38:27.110Z,0.63
2022-12-29T09:41:02.778Z,0.40
2022-12-29T09:44:14.275Z,0.50
2022-12-29T09:46:50.202Z,0.40
2022-12-29T09:49:42.066Z,0.47
2022-12-29T09:52:16.145Z,0.20
2022-12-29T09:55:03.279Z,0.43
2022-12-29T09:57:43.100Z,0.50
2022-12-29T10:00:29.122Z,0.50
2022-12-29T10:03:07.143Z,1.08
2022-12-29T10:05:57.440Z,0.60
2022-12-29T10:08:40.628Z,0.60
2022-12-29T10:11:22.329Z,0.35
2022-12-29T10:14:15.706Z,0.88
2022-12-29T10:17:01.514Z,0.60
2022-12-29T10:19:49.364Z,0.60
2022-12-29T10:22:31.363Z,0.55
2022-12-29T10:24:58.603Z,0.65
2022-12-29T10:27:25.292Z,0.35
2022-12-29T10:29:56.624Z,0.40
2022-12-29T10:32:49.456Z,0.43
2022-12-29T10:35:24.896Z,0.40
2022-12-29T10:37:51.500Z,0.57
2022-12-29T10:40:24.373Z,0.50
2022-12-29T10:42:55.256Z,0.35
2022-12-29T10:45:25.840Z,0.50
2022-12-29T10:48:05.087Z,0.60
2022-12-29T10:50:31.971Z,0.50
2022-12-29T10:53:03.398Z,0.82
2022-12-29T10:55:34.741Z,0.75
2022-12-29T10:58:05.824Z,0.90
2022-12-29T11:00:34.005Z,0.57
2022-12-29T11:03:10.535Z,0.47
2022-12-29T11:05:57.072Z,0.55
2022-12-29T11:08:28.859Z,0.43
2022-12-29T11:11:00.843Z,0.57
2022-12-29T11:13:34.997Z,0.50
2022-12-29T11:16:05.327Z,0.50
2022-12-29T11:18:38.480Z,0.30
2022-12-29T11:21:08.579Z,0.30
2022-12-29T11:23:41.029Z,0.47
2022-12-29T11:26:16.540Z,0.57
2022-12-29T11:28:46.168Z,0.55
2022-12-29T11:31:17.640Z,0.55
2022-12-29T11:36:37.313Z,0.22
2022-12-29T11:39:10.450Z,0.40
2022-12-29T11:41:40.418Z,0.38
2022-12-29T11:44:07.313Z,0.77
2022-12-29T11:46:37.901Z,0.88
2022-12-29T11:49:05.240Z,0.50
2022-12-29T11:51:35.285Z,0.40
2022-12-29T11:54:05.276Z,0.60
2022-12-29T11:56:42.148Z,0.65
2022-12-29T11:59:37.623Z,0.40
2022-12-29T12:02:19.899Z,0.65
2022-12-29T12:04:46.684Z,0.50
2022-12-29T12:07:36.165Z,0.77
2022-12-29T12:10:08.134Z,0.57
2022-12-29T12:12:39.627Z,0.60
2022-12-29T12:15:07.068Z,0.70
2022-12-29T12:17:54.977Z,0.50
2022-12-29T12:20:27.467Z,0.40
2022-12-29T12:22:59.954Z,0.40
2022-12-29T12:25:43.948Z,0.30
2022-12-29T12:28:30.509Z,0.35
2022-12-29T12:31:05.751Z,0.43
2022-12-29T12:33:39.985Z,0.47
2022-12-29T12:36:29.759Z,0.35
2022-12-29T12:39:02.129Z,0.40
2022-12-29T12:41:34.460Z,0.60
2022-12-29T12:44:13.559Z,0.60
2022-12-29T12:46:55.156Z,0.47
2022-12-29T12:49:59.185Z,0.30
2022-12-29T12:52:43.912Z,0.52
2022-12-29T12:55:37.947Z,0.30
2022-12-29T12:58:39.028Z,0.40
2022-12-29T13:01:19.188Z,0.50
2022-12-29T13:04:16.513Z,0.40
2022-12-29T13:06:55.519Z,0.45
2022-12-29T13:09:25.127Z,0.45
2022-12-29T13:12:19.384Z,0.65
2022-12-29T13:15:14.474Z,0.75
2022-12-29T13:17:50.260Z,0.68
2022-12-29T13:20:46.827Z,1.13
2022-12-29T13:23:36.794Z,0.60
2022-12-29T13:26:22.001Z,0.45
2022-12-29T13:29:05.006Z,0.60
2022-12-29T13:31:44.166Z,3.83
2022-12-29T13:34:13.669Z,11.50
2022-12-29T13:36:50.521Z,10.43
2022-12-29T13:39:22.914Z,4.72
2022-12-29T13:41:55.034Z,15.73
2022-12-29T13:44:33.260Z,3.05
2022-12-29T13:47:16.339Z,1.73
2022-12-29T13:49:44.453Z,0.73
2022-12-29T13:52:57.314Z,0.95
2022-12-29T13:55:30.387Z,1.75
2022-12-29T13:58:08.508Z,0.90
2022-12-29T14:00:47.233Z,0.90
2022-12-29T14:03:40.386Z,0.47
2022-12-29T14:06:26.915Z,0.50
2022-12-29T14:08:57.672Z,0.20
2022-12-29T14:11:32.108Z,0.40
2022-12-29T14:14:00.218Z,0.50
2022-12-29T14:16:35.850Z,1.00
2022-12-29T14:19:15.953Z,0.40
2022-12-29T14:21:51.014Z,1.10
2022-12-29T14:24:35.882Z,1.95
2022-12-29T14:27:22.434Z,0.60
2022-12-29T14:29:50.725Z,0.52
2022-12-29T14:32:26.334Z,0.30
2022-12-29T14:35:01.068Z,0.47
2022-12-29T14:37:35.037Z,0.22
2022-12-29T14:40:27.465Z,0.32
2022-12-29T14:42:56.699Z,0.50
2022-12-29T14:45:30.199Z,0.70
2022-12-29T14:47:57.826Z,1.10
2022-12-29T14:50:44.987Z,0.90
2022-12-29T14:53:47.823Z,0.50
2022-12-29T14:56:18.015Z,0.63
2022-12-29T14:58:50.736Z,0.93
2022-12-29T15:01:46.292Z,0.80
2022-12-29T15:04:19.252Z,1.10
2022-12-29T15:06:48.151Z,0.70
2022-12-29T15:09:18.560Z,0.30
2022-12-29T15:11:50.737Z,0.30
2022-12-29T15:14:29.214Z,0.17
2022-12-29T15:16:55.906Z,0.30
2022-12-29T15:19:24.059Z,0.30
2022-12-29T15:21:51.002Z,0.22
2022-12-29T15:24:17.889Z,0.60
2022-12-29T15:26:47.926Z,0.40
2022-12-29T15:29:40.478Z,0.30
2022-12-29T15:32:16.400Z,0.40
2022-12-29T15:34:47.777Z,0.50
2022-12-29T15:37:29.403Z,0.30
2022-12-29T15:42:34.827Z,0.28
2022-12-29T15:45:11.565Z,0.13
2022-12-29T15:47:40.538Z,0.40
2022-12-29T15:50:16.032Z,0.40
2022-12-29T15:52:42.680Z,0.20
2022-12-29T15:55:21.039Z,0.47
2022-12-29T15:57:47.674Z,0.40
2022-12-29T16:00:33.003Z,0.30
2022-12-29T16:03:03.083Z,0.40
2022-12-29T16:05:39.063Z,0.47
2022-12-29T16:08:30.040Z,0.85
2022-12-29T16:10:57.300Z,0.80
2022-12-29T16:13:35.513Z,0.52
2022-12-29T16:16:19.268Z,0.70
2022-12-29T16:18:50.490Z,0.60
2022-12-29T16:21:30.846Z,0.47
2022-12-29T16:24:03.821Z,0.40
2022-12-29T16:26:30.588Z,0.40
2022-12-29T16:29:00.687Z,0.90
2022-12-29T16:31:50.191Z,0.85
2022-12-29T16:34:31.959Z,0.57
2022-12-29T16:39:40.302Z,0.47
2022-12-29T16:42:50.587Z,0.60
2022-12-29T16:45:24.178Z,0.70
2022-12-29T16:48:06.015Z,0.80
2022-12-29T16:50:34.833Z,1.20
2022-12-29T16:53:02.141Z,0.90
2022-12-29T16:55:28.697Z,0.63
2022-12-29T16:57:57.364Z,0.80
2022-12-29T17:00:27.009Z,0.65
2022-12-29T17:02:58.768Z,0.70
2022-12-29T17:05:25.962Z,0.50
2022-12-29T17:07:53.752Z,0.40
2022-12-29T17:10:20.399Z,0.65
2022-12-29T17:12:49.290Z,0.80
2022-12-29T17:15:22.585Z,0.55
2022-12-29T17:17:51.876Z,0.80
2022-12-29T17:20:20.289Z,0.63
2022-12-29T17:22:47.859Z,0.93
2022-12-29T17:25:20.008Z,0.85
2022-12-29T17:27:48.515Z,0.50
2022-12-29T17:30:18.232Z,0.50
2022-12-29T17:32:51.554Z,0.45
2022-12-29T17:35:20.495Z,0.57
2022-12-29T17:37:48.071Z,0.40
2022-12-29T17:40:20.974Z,0.50
2022-12-29T17:42:54.685Z,0.70
2022-12-29T17:45:26.949Z,0.57
2022-12-29T17:47:54.122Z,0.40
2022-12-29T17:50:25.730Z,1.25
2022-12-29T17:55:32.775Z,0.50
2022-12-29T17:58:16.874Z,0.35
2022-12-29T18:00:43.750Z,1.02
2022-12-29T18:03:23.485Z,1.17
2022-12-29T18:05:50.413Z,1.30
2022-12-29T18:08:17.080Z,0.85
2022-12-29T18:10:44.472Z,0.90
2022-12-29T18:13:24.101Z,1.00
2022-12-29T18:15:51.603Z,0.93
2022-12-29T18:18:20.918Z,1.10
2022-12-29T18:20:49.483Z,1.20
2022-12-29T18:23:22.489Z,1.65
2022-12-29T18:26:05.867Z,1.15
2022-12-29T18:28:32.621Z,1.05
2022-12-29T18:31:01.613Z,1.67
2022-12-29T18:33:28.390Z,1.42
2022-12-29T18:35:57.845Z,1.15
2022-12-29T18:38:24.939Z,1.25
2022-12-29T18:40:54.904Z,0.90
2022-12-29T18:43:22.891Z,1.98
2022-12-29T18:45:49.612Z,3.95
2022-12-29T18:48:18.267Z,2.88
2022-12-29T18:50:45.656Z,2.33
2022-12-29T18:53:20.580Z,1.95
2022-12-29T18:55:47.225Z,2.33
2022-12-29T18:58:13.885Z,1.90
2022-12-29T19:00:40.946Z,1.35
2022-12-29T19:03:07.697Z,1.15
2022-12-29T19:05:38.975Z,0.93
2022-12-29T19:08:07.105Z,0.98
2022-12-29T19:10:34.570Z,2.25
2022-12-29T19:13:01.815Z,2.58
2022-12-29T19:15:31.294Z,3.17
2022-12-29T19:20:48.517Z,3.20
2022-12-29T19:23:17.737Z,2.05
2022-12-29T19:25:45.643Z,1.00
2022-12-29T19:28:32.527Z,0.82
2022-12-29T19:31:02.495Z,0.65
2022-12-29T19:33:29.534Z,1.00
2022-12-29T19:36:01.523Z,1.42
2022-12-29T19:38:28.218Z,1.50
2022-12-29T19:40:54.825Z,0.90
2022-12-29T19:43:21.447Z,1.10
2022-12-29T19:45:48.022Z,1.10
2022-12-29T19:48:17.609Z,1.00
2022-12-29T19:50:45.184Z,0.77
2022-12-29T19:53:12.706Z,0.63
2022-12-29T19:55:46.656Z,1.20
2022-12-29T19:58:13.799Z,1.98
2022-12-29T20:00:42.525Z,3.40
2022-12-29T20:03:09.493Z,2.42
2022-12-29T20:05:36.363Z,1.70
2022-12-29T20:08:03.046Z,1.42
2022-12-29T20:10:29.772Z,0.70
2022-12-29T20:12:56.376Z,0.80
2022-12-29T20:15:22.932Z,1.20
2022-12-29T20:20:36.190Z,0.57
2022-12-29T20:23:02.801Z,1.00
2022-12-29T20:25:46.616Z,0.70
2022-12-29T20:28:15.560Z,0.70
2022-12-29T20:30:42.819Z,1.05
2022-12-29T20:33:09.418Z,0.40
2022-12-29T20:35:36.869Z,0.95
2022-12-29T20:38:04.751Z,0.70
2022-12-29T20:40:31.396Z,0.90
2022-12-29T20:42:58.030Z,0.90
2022-12-29T20:45:24.949Z,0.70
2022-12-29T20:47:51.596Z,1.00
2022-12-29T20:50:18.183Z,0.80
2022-12-29T20:52:47.759Z,1.70
2022-12-29T20:55:14.624Z,2.08
2022-12-29T21:00:30.333Z,1.30
2022-12-29T21:02:58.274Z,1.02
2022-12-29T21:05:26.182Z,1.25
2022-12-29T21:07:54.046Z,1.70
2022-12-29T21:10:21.594Z,1.80
2022-12-29T21:12:48.538Z,1.25
2022-12-29T21:15:15.736Z,1.20
2022-12-29T21:17:43.773Z,1.10
2022-12-29T21:20:19.583Z,0.60
2022-12-29T21:22:48.222Z,0.90
2022-12-29T21:25:14.859Z,0.70
2022-12-29T21:27:44.548Z,1.55
2022-12-29T21:30:12.016Z,0.80
2022-12-29T21:32:39.874Z,2.33
2022-12-29T21:35:07.971Z,1.38
2022-12-29T21:37:35.708Z,0.70
2022-12-29T21:40:02.869Z,1.30
2022-12-29T21:42:30.231Z,0.70
2022-12-29T21:45:20.201Z,0.73
2022-12-29T21:48:06.419Z,0.65
2022-12-29T21:50:33.145Z,0.70
2022-12-29T21:52:59.698Z,0.80
2022-12-29T21:55:26.271Z,4.18
2022-12-29T21:58:11.504Z,6.60
2022-12-29T22:00:56.617Z,5.15
2022-12-29T22:03:41.793Z,2.08
2022-12-29T22:06:30.194Z,0.77
2022-12-29T22:09:15.490Z,0.35
2022-12-29T22:12:00.669Z,0.38
2022-12-29T22:14:27.207Z,0.82
2022-12-29T22:16:53.856Z,0.30
2022-12-29T22:19:20.456Z,0.50
2022-12-29T22:21:47.070Z,1.10
2022-12-29T22:24:13.707Z,1.10
2022-12-29T22:26:40.286Z,1.10
2022-12-29T22:29:06.943Z,1.73
2022-12-29T22:31:33.886Z,0.50
2022-12-29T22:34:02.470Z,0.63
2022-12-29T22:36:29.792Z,0.95
2022-12-29T22:38:56.546Z,1.70
2022-12-29T22:41:23.629Z,1.20
2022-12-29T22:43:50.225Z,1.00
2022-12-29T22:46:16.863Z,1.13
2022-12-29T22:48:43.684Z,1.77
2022-12-29T22:51:10.272Z,1.67
2022-12-29T22:53:36.894Z,0.90
2022-12-29T22:56:09.284Z,1.08
2022-12-29T22:58:40.239Z,0.65
2022-12-29T23:01:06.916Z,0.68
2022-12-29T23:03:33.808Z,0.40
2022-12-29T23:06:02.672Z,0.52
2022-12-29T23:08:32.381Z,0.70
2022-12-29T23:10:59.072Z,0.40
2022-12-29T23:13:25.712Z,1.00
2022-12-29T23:15:52.449Z,0.30
2022-12-29T23:18:19.167Z,0.45
2022-12-29T23:20:48.186Z,0.38
2022-12-29T23:23:35.739Z,0.40
2022-12-29T23:26:02.434Z,0.38
2022-12-29T23:28:29.043Z,0.35
2022-12-29T23:30:55.614Z,0.43
2022-12-29T23:33:22.248Z,0.35
2022-12-29T23:35:48.807Z,0.30
2022-12-29T23:38:15.548Z,0.30
2022-12-29T23:40:42.125Z,0.30
2022-12-29T23:43:08.745Z,0.22
2022-12-29T23:45:36.205Z,0.30
2022-12-29T23:48:02.838Z,0.20
2022-12-29T23:50:29.699Z,0.30
2022-12-29T23:52:56.298Z,0.20
2022-12-29T23:55:22.912Z,0.30
2022-12-29T23:57:49.556Z,0.47
